Stunt Ranch Reserve, Santa Monica Mtns, California Weather observations

Data are for 10 minute period ending at time listed.
 Day   Time   Solar   Ave.   Ave.  Ave.  Vector  Max.   Baro.   Total    
  of    of     Rad.   Air    Rel.  Wind   Wind   Wind  Press.  Precip.   
Year   Day            Temp.  Hum.  Speed  Dir.   Gust                    
2026   (PST)  Kw/m2    F      %     mph   deg.    mph    mb.     in.     
-------------------------------------------------------------------------
 121   16:00   0.49   79.1    46    3.3   281     8.0   966.6    0.00 
 121   16:10   0.46   79.0    46    2.7   282     6.9   966.6    0.00 
 121   16:20   0.43   78.2    47    3.4   279     8.2   966.5    0.00 
 121   16:30   0.39   77.5    47    3.6   276     7.7   966.6    0.00 
 121   16:40   0.33   76.6    48    2.7   276     8.0   966.6    0.00 
 121   16:50   0.29   75.5    49    3.0   288     7.6   966.6    0.00 
 121   17:00   0.23   74.7    50    2.8   283     8.5   966.5    0.00 
 121   17:10   0.25   73.4    51    2.8   274     8.6   966.5    0.00 
 121   17:20   0.20   72.4    52    1.9   283     7.4   966.6    0.00 
 121   17:30   0.18   71.4    54    2.6   283     6.3   966.6    0.00 
 121   17:40   0.15   70.9    54    1.6   278     6.0   966.6    0.00 
 121   17:50   0.11   69.3    57    1.9   301     5.0   966.6    0.00 
 121   18:00   0.07   68.0    59    1.5   300     6.1   966.7    0.00 
 121   18:10   0.03   66.7    62    1.1   292     5.3   966.7    0.00 
 121   18:20   0.02   65.7    63    1.1   299     6.7   966.7    0.00 
 121   18:30   0.02   64.7    65    0.7   288     3.1   966.8    0.00 
 121   18:40   0.01   63.9    67    0.2   246     2.0   966.9    0.00 
 121   18:50   0.00   62.9    69    0.8   246     2.8   966.9    0.00 
 121   19:00   0.00   62.2    70    1.1   240     3.3   966.9    0.00 
 121   19:10   0.00   61.5    72    0.8   244     1.7   967.0    0.00 
 121   19:20   0.00   60.8    73    1.6   241     3.2   967.0    0.00 
 121   19:30   0.00   60.1    74    1.5   249     3.0   967.1    0.00 
 121   19:40   0.00   59.5    76    1.7   236     2.6   967.2    0.00 
 121   19:50   0.00   59.2    76    1.5   242     2.8   967.4    0.00 
 121   20:00   0.00   58.7    77    1.5   215     2.3   967.6    0.00 
 121   20:10   0.00   58.4    77    0.9   247     2.3   967.8    0.00 
 121   20:20   0.00   58.0    78    1.6   237     2.8   967.9    0.00 
 121   20:30   0.00   57.6    79    1.4   240     2.1   967.9    0.00 
 121   20:40   0.00   57.4    80    0.8   242     1.7   968.0    0.00 
 121   20:50   0.00   56.8    80    1.0   165     2.5   968.0    0.00 
 121   21:00   0.00   56.4    82    0.6   276     1.5   968.1    0.00 
 121   21:10   0.00   56.4    82    0.7   238     1.5   968.3    0.00 
 121   21:20   0.00   56.2    82    0.3   194     1.3   968.3    0.00 
 121   21:30   0.00   55.9    83    0.9   257     1.9   968.3    0.00 
 121   21:40   0.00   55.8    83    0.2   240     1.0   968.2    0.00 
 121   21:50   0.00   55.5    84    0.9   263     1.5   968.1    0.00 
 121   22:00   0.00   55.4    84    0.9   266     1.8   968.2    0.00 
 121   22:10   0.00   55.5    84    0.6   227     1.7   968.2    0.00 
 121   22:20   0.00   55.2    83    1.0   278     1.8   968.2    0.00 
 121   22:30   0.00   55.1    84    0.8   238     1.8   968.3    0.00 
 121   22:40   0.00   54.9    84    0.3   272     1.2   968.3    0.00 
 121   22:50   0.00   54.7    84    0.1   135     0.6   968.3    0.00 
 121   23:00   0.00   54.4    84    0.5   163     1.3   968.4    0.00 
 121   23:10   0.00   54.3    86    0.1   294     1.0   968.4    0.00 
 121   23:20   0.00   54.4    86    0.4   147     2.1   968.3    0.00 
 121   23:30   0.00   54.3    85    0.0   128     0.9   968.3    0.00 
 121   23:40   0.00   54.1    85    1.3   273     2.3   968.3    0.00 
 121   23:50   0.00   53.7    86    0.2   221     1.8   968.3    0.00 
 122    0:00   0.00   54.0    86    0.7   232     1.9   968.2    0.00 
 122    0:10   0.00   53.9    86    1.0   285     3.7   968.1    0.00 
 122    0:20   0.00   53.3    87    1.8   280     3.9   968.2    0.00 
 122    0:30   0.00   52.9    88    0.6   242     2.0   968.1    0.00 
 122    0:40   0.00   52.7    88    1.7   242     2.6   968.0    0.00 
 122    0:50   0.00   52.5    88    1.4   247     2.6   967.8    0.00 
 122    1:00   0.00   52.2    89    2.4   269     3.1   967.8    0.00 
 122    1:10   0.00   52.0    89    0.6   142     2.4   967.8    0.00 
 122    1:20   0.00   52.0    89    1.1   173     2.6   967.7    0.00 
 122    1:30   0.00   51.7    90    0.3   282     1.1   967.7    0.00 
 122    1:40   0.00   51.3    90    0.3   116     1.8   967.6    0.00 
 122    1:50   0.00   51.2    90    1.0   215     2.1   967.5    0.00 
 122    2:00   0.00   50.9    91    1.4   269     2.7   967.5    0.00 
 122    2:10   0.00   50.3    92    0.3   132     1.8   967.6    0.00 
 122    2:20   0.00   49.9    92    2.4   120     3.4   967.5    0.00 
 122    2:30   0.00   50.4    92    1.1   124     2.7   967.4    0.00 
 122    2:40   0.00   51.3    92    1.2   168     2.0   967.3    0.00 
 122    2:50   0.00   51.2    91    2.3   270     3.7   967.5    0.00 
 122    3:00   0.00   50.7    91    1.4   113     3.3   967.5    0.00 
 122    3:10   0.00   51.1    92    2.1   126     3.7   967.6    0.00 
 122    3:20   0.00   51.3    92    0.5   126     1.5   967.6    0.00 
 122    3:30   0.00   51.0    91    0.4   350     1.2   967.7    0.00 
 122    3:40   0.00   50.4    92    0.6   186     1.8   967.8    0.00 
 122    3:50   0.00   50.5    92    0.9   258     2.2   967.8    0.00 
 122    4:00   0.00   50.2    93    0.5    35     1.8   967.9    0.00 
 122    4:10   0.00   50.4    93    1.5   201     3.4   967.9    0.00 
 122    4:20   0.00   51.2    94    1.5   229     3.4   967.9    0.00 
 122    4:30   0.00   51.4    94    1.0   175     2.8   967.9    0.00 
 122    4:40   0.00   51.4    94    1.3   130     2.8   968.0    0.00 
 122    4:50   0.00   51.2    94    1.7   141     2.4   968.1    0.00 
 122    5:00   0.00   51.3    94    0.7   147     2.7   968.1    0.00 
 122    5:10   0.00   50.8    94    1.6   264     3.1   968.2    0.00 
 122    5:20   0.01   51.2    94    1.4   260     3.1   968.3    0.00 
 122    5:30   0.01   51.6    94    1.1   244     2.6   968.4    0.00 
 122    5:40   0.02   52.2    94    0.9   248     2.3   968.5    0.00 
 122    5:50   0.03   51.9    94    0.9   105     2.5   968.6    0.00 
 122    6:00   0.04   52.2    94    0.3   291     1.5   968.8    0.00 
 122    6:10   0.04   52.6    94    0.4    66     1.5   968.9    0.00 
 122    6:20   0.05   53.1    94    0.1   290     0.7   969.0    0.00 
 122    6:30   0.10   53.3    94    1.6    91     3.4   968.9    0.00 
 122    6:40   0.17   54.1    95    1.2    78     2.9   968.7    0.00 
 122    6:50   0.14   55.8    94    2.3   352     7.2   968.6    0.00 
 122    7:00   0.14   56.1    92    1.4   339     4.0   968.6    0.00 
 122    7:10   0.15   56.6    91    1.6   335     4.3   968.8    0.00 
 122    7:20   0.12   57.3    89    1.7   322     4.4   969.0    0.00 
 122    7:30   0.12   57.4    87    2.2   273     4.7   969.2    0.00 
 122    7:40   0.14   57.6    87    2.0   307     4.1   969.2    0.00 
 122    7:50   0.15   57.8    85    2.1   300     3.8   969.4    0.00 
 122    8:00   0.17   57.8    86    1.6   304     3.2   969.3    0.00 
 122    8:10   0.15   58.8    84    2.2   293     4.8   969.3    0.00 
 122    8:20   0.16   58.9    84    2.3   326     6.4   969.3    0.00 
 122    8:30   0.21   59.3    84    3.1   348     6.1   969.4    0.00 
 122    8:40   0.19   59.8    82    2.8   335     6.7   969.6    0.00 
 122    8:50   0.14   60.0    81    2.1   290     5.0   969.6    0.00 
 122    9:00   0.18   59.2    83    1.6   334     5.1   969.5    0.00 
 122    9:10   0.21   59.1    84    3.8    37     7.4   969.5    0.00 
 122    9:20   0.27   59.2    85    3.3    26     6.8   969.4    0.00 
 122    9:30   0.31   60.5    80    4.4    29     8.3   969.3    0.00 
 122    9:40   0.42   60.2    81    6.2    42     9.4   969.2    0.00 
 122    9:50   0.65   61.5    78    4.2    45     8.8   969.1    0.00 
 122   10:00   0.77   65.4    70    3.2   358     8.3   969.1    0.00 
 122   10:10   0.80   66.2    69    3.5    31     9.1   969.0    0.00 
 122   10:20   0.81   68.9    63    2.7   354     7.5   969.0    0.00 
 122   10:30   0.81   70.1    62    3.7   284     8.4   969.0    0.00 
 122   10:40   0.81   71.8    59    3.7   272     8.6   969.0    0.00 
 122   10:50   0.78   71.5    59    3.8   283     7.5   969.0    0.00 
 122   11:00   0.82   71.8    59    4.1   280     8.3   968.8    0.00 
 122   11:10   0.85   72.5    57    4.2   282     8.7   968.7    0.00 
 122   11:20   0.83   72.8    56    3.8   281     7.5   968.6    0.00 
 122   11:30   0.86   72.0    58    3.4   281     7.0   968.4    0.00 
 122   11:40   0.83   71.9    59    3.1   280     6.2   968.2    0.00 
 122   11:50   0.84   73.9    56    3.8   281     6.5   968.2    0.00 
 122   12:00   0.81   73.8    56    3.4   274     6.5   967.9    0.00 
 122   12:10   0.83   75.0    53    3.9   278     6.7   967.7    0.00 
 122   12:20   0.88   76.7    50    3.9   282     8.3   967.6    0.00 
 122   12:30   0.88   78.7    47    3.5   279     8.3   967.5    0.00 
 122   12:40   0.88   80.7    45    3.8   287     7.6   967.4    0.00 
 122   12:50   0.87   80.1    46    3.3   296     7.7   967.5    0.00 
 122   13:00   0.86   79.9    46    3.6   281     8.8   967.4    0.00 
 122   13:10   0.84   79.6    46    3.6   279     9.2   967.4    0.00 
 122   13:20   0.85   79.5    46    3.7   280     8.1   967.3    0.00 
 122   13:30   0.81   78.3    47    3.5   280     7.2   967.2    0.00 
 122   13:40   0.82   77.4    48    3.7   277     7.2   967.1    0.00 
 122   13:50   0.81   76.5    49    4.3   280     7.4   966.9    0.00 
 122   14:00   0.79   77.4    46    4.0   282     7.2   966.7    0.00 
 122   14:10   0.78   77.3    46    4.3   278     7.7   966.6    0.00 
 122   14:20   0.76   77.7    45    4.0   284     8.0   966.5    0.00 
 122   14:30   0.73   78.1    45    4.1   279     7.5   966.3    0.00 
 122   14:40   0.71   78.3    46    3.8   277     7.5   966.2    0.00 
 122   14:50   0.69   78.4    46    3.3   282     6.5   965.9    0.00 
 122   15:00   0.66   77.4    48    2.8   287     6.2   965.8    0.00 
 122   15:10   0.64   78.1    48    3.2   280     6.4   965.7    0.00 
 122   15:20   0.61   79.4    46    3.3   280     6.9   965.6    0.00 
 122   15:30   0.58   80.0    46    3.3   272     8.0   965.4    0.00 
 122   15:40   0.55   80.6    45    3.8   272     6.9   965.3    0.00 
 122   15:50   0.53   80.2    45    2.7   280     6.5   965.2    0.00 

Return to Stunt Ranch Reserve graphs page.


Western Regional Climate Center,wrcc@dri.edu